sensor_id;sensor_type;location;lat;lon;timestamp;P1;durP1;ratioP1;P2;durP2;ratioP2
12792;SDS011;6460;42.684;23.260;2023-07-29T06:57:00;4.80;;;3.73;;
12792;SDS011;6460;42.684;23.260;2023-07-29T06:59:27;4.30;;;3.87;;
12792;SDS011;6460;42.684;23.260;2023-07-29T07:01:54;4.63;;;4.10;;
12792;SDS011;6460;42.684;23.260;2023-07-29T07:04:21;4.33;;;3.77;;
12792;SDS011;6460;42.684;23.260;2023-07-29T07:06:49;4.13;;;3.57;;
12792;SDS011;6460;42.684;23.260;2023-07-29T07:09:16;3.57;;;3.27;;
12792;SDS011;6460;42.684;23.260;2023-07-29T07:11:43;5.23;;;3.70;;
12792;SDS011;6460;42.684;23.260;2023-07-29T07:14:11;3.83;;;3.40;;
12792;SDS011;6460;42.684;23.260;2023-07-29T07:16:38;4.00;;;3.60;;
12792;SDS011;6460;42.684;23.260;2023-07-29T07:19:05;3.80;;;3.40;;
12792;SDS011;6460;42.684;23.260;2023-07-29T07:21:32;5.47;;;4.00;;
12792;SDS011;6460;42.684;23.260;2023-07-29T07:24:00;4.10;;;3.70;;
12792;SDS011;6460;42.684;23.260;2023-07-29T07:26:26;4.83;;;4.17;;
12792;SDS011;6460;42.684;23.260;2023-07-29T07:28:54;6.13;;;4.57;;
12792;SDS011;6460;42.684;23.260;2023-07-29T07:31:23;5.13;;;4.30;;
12792;SDS011;6460;42.684;23.260;2023-07-29T07:33:50;4.50;;;4.07;;
12792;SDS011;6460;42.684;23.260;2023-07-29T07:36:17;4.90;;;4.37;;
12792;SDS011;6460;42.684;23.260;2023-07-29T07:38:45;5.90;;;5.10;;
12792;SDS011;6460;42.684;23.260;2023-07-29T07:41:12;4.57;;;4.07;;
12792;SDS011;6460;42.684;23.260;2023-07-29T07:43:39;4.90;;;4.30;;
12792;SDS011;6460;42.684;23.260;2023-07-29T07:46:06;4.70;;;4.30;;
12792;SDS011;6460;42.684;23.260;2023-07-29T07:48:35;5.77;;;4.40;;
12792;SDS011;6460;42.684;23.260;2023-07-29T07:51:09;5.50;;;4.10;;
12792;SDS011;6460;42.684;23.260;2023-07-29T07:53:37;4.77;;;4.20;;
12792;SDS011;6460;42.684;23.260;2023-07-29T07:56:05;4.33;;;3.90;;
12792;SDS011;6460;42.684;23.260;2023-07-29T07:58:33;5.30;;;4.20;;
12792;SDS011;6460;42.684;23.260;2023-07-29T08:01:01;4.50;;;4.10;;
12792;SDS011;6460;42.684;23.260;2023-07-29T08:03:28;4.43;;;3.97;;
12792;SDS011;6460;42.684;23.260;2023-07-29T08:05:57;4.23;;;3.67;;
12792;SDS011;6460;42.684;23.260;2023-07-29T08:08:25;4.73;;;4.03;;
12792;SDS011;6460;42.684;23.260;2023-07-29T08:10:52;4.30;;;3.80;;
12792;SDS011;6460;42.684;23.260;2023-07-29T08:13:20;3.80;;;3.40;;
12792;SDS011;6460;42.684;23.260;2023-07-29T08:15:48;4.37;;;3.97;;
12792;SDS011;6460;42.684;23.260;2023-07-29T08:18:15;4.20;;;3.80;;
12792;SDS011;6460;42.684;23.260;2023-07-29T08:20:51;3.97;;;3.37;;
12792;SDS011;6460;42.684;23.260;2023-07-29T08:23:21;4.00;;;3.60;;
12792;SDS011;6460;42.684;23.260;2023-07-29T08:25:52;3.53;;;3.23;;
12792;SDS011;6460;42.684;23.260;2023-07-29T08:28:21;4.47;;;4.07;;
12792;SDS011;6460;42.684;23.260;2023-07-29T08:30:48;4.03;;;3.63;;
12792;SDS011;6460;42.684;23.260;2023-07-29T08:33:16;6.43;;;4.13;;
12792;SDS011;6460;42.684;23.260;2023-07-29T08:35:43;5.57;;;3.80;;
12792;SDS011;6460;42.684;23.260;2023-07-29T08:38:11;11.63;;;9.17;;
12792;SDS011;6460;42.684;23.260;2023-07-29T08:40:42;4.40;;;3.50;;
12792;SDS011;6460;42.684;23.260;2023-07-29T08:43:12;4.30;;;3.53;;
12792;SDS011;6460;42.684;23.260;2023-07-29T08:45:43;4.17;;;3.00;;
12792;SDS011;6460;42.684;23.260;2023-07-29T08:48:11;4.27;;;3.20;;
12792;SDS011;6460;42.684;23.260;2023-07-29T08:50:42;2.87;;;2.63;;
12792;SDS011;6460;42.684;23.260;2023-07-29T08:53:11;3.03;;;2.80;;
12792;SDS011;6460;42.684;23.260;2023-07-29T08:55:41;5.23;;;3.73;;
12792;SDS011;6460;42.684;23.260;2023-07-29T08:58:09;3.87;;;3.30;;
12792;SDS011;6460;42.684;23.260;2023-07-29T09:00:37;3.27;;;2.87;;
12792;SDS011;6460;42.684;23.260;2023-07-29T09:03:05;3.30;;;3.00;;
12792;SDS011;6460;42.684;23.260;2023-07-29T09:05:33;3.80;;;3.13;;
12792;SDS011;6460;42.684;23.260;2023-07-29T09:08:02;3.27;;;2.97;;
12792;SDS011;6460;42.684;23.260;2023-07-29T09:10:30;3.43;;;3.13;;
12792;SDS011;6460;42.684;23.260;2023-07-29T09:13:03;2.90;;;2.60;;
12792;SDS011;6460;42.684;23.260;2023-07-29T09:15:32;2.77;;;2.53;;
12792;SDS011;6460;42.684;23.260;2023-07-29T09:18:08;4.23;;;2.60;;
12792;SDS011;6460;42.684;23.260;2023-07-29T09:20:36;3.67;;;2.63;;
12792;SDS011;6460;42.684;23.260;2023-07-29T09:23:06;2.93;;;2.70;;
12792;SDS011;6460;42.684;23.260;2023-07-29T09:25:35;2.93;;;2.63;;
12792;SDS011;6460;42.684;23.260;2023-07-29T09:28:09;3.03;;;2.60;;
12792;SDS011;6460;42.684;23.260;2023-07-29T09:30:37;3.53;;;2.87;;
12792;SDS011;6460;42.684;23.260;2023-07-29T09:33:06;2.67;;;2.40;;
12792;SDS011;6460;42.684;23.260;2023-07-29T09:35:34;3.10;;;2.37;;
12792;SDS011;6460;42.684;23.260;2023-07-29T09:38:02;2.73;;;2.33;;
12792;SDS011;6460;42.684;23.260;2023-07-29T09:40:33;2.27;;;2.07;;
12792;SDS011;6460;42.684;23.260;2023-07-29T09:43:02;2.10;;;1.90;;
12792;SDS011;6460;42.684;23.260;2023-07-29T09:45:33;2.40;;;2.20;;
12792;SDS011;6460;42.684;23.260;2023-07-29T09:48:01;3.07;;;2.00;;
12792;SDS011;6460;42.684;23.260;2023-07-29T09:50:30;2.30;;;2.10;;
12792;SDS011;6460;42.684;23.260;2023-07-29T09:52:57;2.20;;;2.00;;
12792;SDS011;6460;42.684;23.260;2023-07-29T09:55:25;2.40;;;2.20;;
12792;SDS011;6460;42.684;23.260;2023-07-29T09:57:54;2.20;;;2.00;;
12792;SDS011;6460;42.684;23.260;2023-07-29T10:00:24;3.17;;;2.17;;
12792;SDS011;6460;42.684;23.260;2023-07-29T10:02:54;2.37;;;1.77;;
12792;SDS011;6460;42.684;23.260;2023-07-29T10:05:22;3.03;;;2.30;;
12792;SDS011;6460;42.684;23.260;2023-07-29T10:07:50;2.03;;;1.83;;
12792;SDS011;6460;42.684;23.260;2023-07-29T10:10:17;2.17;;;1.97;;
12792;SDS011;6460;42.684;23.260;2023-07-29T10:12:45;1.77;;;1.67;;
12792;SDS011;6460;42.684;23.260;2023-07-29T10:15:13;2.37;;;2.17;;
12792;SDS011;6460;42.684;23.260;2023-07-29T10:17:40;1.73;;;1.50;;
12792;SDS011;6460;42.684;23.260;2023-07-29T10:20:11;1.97;;;1.67;;
12792;SDS011;6460;42.684;23.260;2023-07-29T10:22:39;2.87;;;1.70;;
12792;SDS011;6460;42.684;23.260;2023-07-29T10:25:08;2.47;;;1.90;;
12792;SDS011;6460;42.684;23.260;2023-07-29T10:27:43;1.80;;;1.70;;
12792;SDS011;6460;42.684;23.260;2023-07-29T10:30:16;1.97;;;1.70;;
12792;SDS011;6460;42.684;23.260;2023-07-29T10:32:44;1.90;;;1.80;;
12792;SDS011;6460;42.684;23.260;2023-07-29T10:35:13;2.63;;;2.07;;
12792;SDS011;6460;42.684;23.260;2023-07-29T10:37:41;2.20;;;2.00;;
12792;SDS011;6460;42.684;23.260;2023-07-29T10:40:11;1.77;;;1.63;;
12792;SDS011;6460;42.684;23.260;2023-07-29T10:42:39;1.87;;;1.77;;
12792;SDS011;6460;42.684;23.260;2023-07-29T10:45:27;3.40;;;2.43;;
12792;SDS011;6460;42.684;23.260;2023-07-29T10:48:05;2.07;;;1.77;;
12792;SDS011;6460;42.684;23.260;2023-07-29T10:50:35;1.80;;;1.70;;
12792;SDS011;6460;42.684;23.260;2023-07-29T10:53:02;1.80;;;1.70;;
12792;SDS011;6460;42.684;23.260;2023-07-29T10:55:31;1.90;;;1.63;;
12792;SDS011;6460;42.684;23.260;2023-07-29T10:58:07;3.70;;;1.60;;
12792;SDS011;6460;42.684;23.260;2023-07-29T11:00:36;2.33;;;1.60;;
12792;SDS011;6460;42.684;23.260;2023-07-29T11:03:05;1.77;;;1.50;;
12792;SDS011;6460;42.684;23.260;2023-07-29T11:05:45;1.93;;;1.73;;
12792;SDS011;6460;42.684;23.260;2023-07-29T11:08:23;1.70;;;1.60;;
12792;SDS011;6460;42.684;23.260;2023-07-29T11:10:58;2.30;;;1.60;;
12792;SDS011;6460;42.684;23.260;2023-07-29T11:13:38;1.53;;;1.43;;
12792;SDS011;6460;42.684;23.260;2023-07-29T11:16:05;1.60;;;1.50;;
12792;SDS011;6460;42.684;23.260;2023-07-29T11:18:34;2.77;;;1.40;;
12792;SDS011;6460;42.684;23.260;2023-07-29T11:21:04;1.80;;;1.53;;
12792;SDS011;6460;42.684;23.260;2023-07-29T11:23:32;1.80;;;1.30;;
12792;SDS011;6460;42.684;23.260;2023-07-29T11:26:01;1.60;;;1.50;;
12792;SDS011;6460;42.684;23.260;2023-07-29T11:28:29;1.70;;;1.60;;
12792;SDS011;6460;42.684;23.260;2023-07-29T11:30:57;1.93;;;1.50;;
12792;SDS011;6460;42.684;23.260;2023-07-29T11:33:25;1.50;;;1.40;;
12792;SDS011;6460;42.684;23.260;2023-07-29T11:35:53;1.60;;;1.50;;
12792;SDS011;6460;42.684;23.260;2023-07-29T11:38:23;1.67;;;1.57;;
12792;SDS011;6460;42.684;23.260;2023-07-29T11:40:54;1.47;;;1.37;;
12792;SDS011;6460;42.684;23.260;2023-07-29T11:43:23;1.50;;;1.40;;
12792;SDS011;6460;42.684;23.260;2023-07-29T11:45:51;1.47;;;1.30;;
12792;SDS011;6460;42.684;23.260;2023-07-29T11:48:21;1.90;;;1.37;;
12792;SDS011;6460;42.684;23.260;2023-07-29T11:50:53;1.50;;;1.40;;
12792;SDS011;6460;42.684;23.260;2023-07-29T11:53:23;1.60;;;1.50;;
12792;SDS011;6460;42.684;23.260;2023-07-29T11:55:54;1.70;;;1.60;;
12792;SDS011;6460;42.684;23.260;2023-07-29T11:58:21;1.63;;;1.50;;
12792;SDS011;6460;42.684;23.260;2023-07-29T12:00:49;1.40;;;1.30;;
12792;SDS011;6460;42.684;23.260;2023-07-29T12:03:17;1.43;;;1.33;;
12792;SDS011;6460;42.684;23.260;2023-07-29T12:05:45;1.63;;;1.50;;
12792;SDS011;6460;42.684;23.260;2023-07-29T12:08:13;1.53;;;1.43;;
12792;SDS011;6460;42.684;23.260;2023-07-29T12:10:42;1.70;;;1.60;;
12792;SDS011;6460;42.684;23.260;2023-07-29T12:13:10;1.30;;;1.20;;
12792;SDS011;6460;42.684;23.260;2023-07-29T12:15:38;3.00;;;1.40;;
12792;SDS011;6460;42.684;23.260;2023-07-29T12:18:06;1.50;;;1.40;;
12792;SDS011;6460;42.684;23.260;2023-07-29T12:20:33;1.73;;;1.50;;
12792;SDS011;6460;42.684;23.260;2023-07-29T12:23:01;1.60;;;1.30;;
12792;SDS011;6460;42.684;23.260;2023-07-29T12:25:31;1.53;;;1.43;;
12792;SDS011;6460;42.684;23.260;2023-07-29T12:28:03;1.50;;;1.40;;
12792;SDS011;6460;42.684;23.260;2023-07-29T12:30:31;1.60;;;1.50;;
12792;SDS011;6460;42.684;23.260;2023-07-29T12:32:59;1.50;;;1.40;;
12792;SDS011;6460;42.684;23.260;2023-07-29T12:35:33;1.73;;;1.60;;
12792;SDS011;6460;42.684;23.260;2023-07-29T12:38:04;1.67;;;1.57;;
12792;SDS011;6460;42.684;23.260;2023-07-29T12:40:32;1.60;;;1.50;;
12792;SDS011;6460;42.684;23.260;2023-07-29T12:42:59;1.60;;;1.50;;
12792;SDS011;6460;42.684;23.260;2023-07-29T12:45:28;1.73;;;1.63;;
12792;SDS011;6460;42.684;23.260;2023-07-29T12:48:05;1.53;;;1.20;;
12792;SDS011;6460;42.684;23.260;2023-07-29T12:50:32;1.83;;;1.43;;
12792;SDS011;6460;42.684;23.260;2023-07-29T12:52:59;1.77;;;1.37;;
12792;SDS011;6460;42.684;23.260;2023-07-29T12:55:27;1.50;;;1.30;;
12792;SDS011;6460;42.684;23.260;2023-07-29T12:57:54;1.60;;;1.50;;
12792;SDS011;6460;42.684;23.260;2023-07-29T13:00:23;1.57;;;1.20;;
12792;SDS011;6460;42.684;23.260;2023-07-29T13:02:53;1.50;;;1.40;;
12792;SDS011;6460;42.684;23.260;2023-07-29T13:05:19;1.53;;;1.43;;
12792;SDS011;6460;42.684;23.260;2023-07-29T13:07:46;1.80;;;1.70;;
12792;SDS011;6460;42.684;23.260;2023-07-29T13:10:14;1.90;;;1.57;;
12792;SDS011;6460;42.684;23.260;2023-07-29T13:12:41;1.40;;;1.30;;
12792;SDS011;6460;42.684;23.260;2023-07-29T13:15:09;1.73;;;1.30;;
12792;SDS011;6460;42.684;23.260;2023-07-29T13:17:36;2.13;;;1.60;;
12792;SDS011;6460;42.684;23.260;2023-07-29T13:20:06;1.60;;;1.50;;
12792;SDS011;6460;42.684;23.260;2023-07-29T13:22:34;1.47;;;1.37;;
12792;SDS011;6460;42.684;23.260;2023-07-29T13:25:02;1.67;;;1.57;;
12792;SDS011;6460;42.684;23.260;2023-07-29T13:27:30;1.87;;;1.77;;
12792;SDS011;6460;42.684;23.260;2023-07-29T13:29:57;2.37;;;1.77;;
12792;SDS011;6460;42.684;23.260;2023-07-29T13:32:25;1.90;;;1.80;;
12792;SDS011;6460;42.684;23.260;2023-07-29T13:34:52;1.70;;;1.60;;
12792;SDS011;6460;42.684;23.260;2023-07-29T13:37:21;2.17;;;1.97;;
12792;SDS011;6460;42.684;23.260;2023-07-29T13:39:48;2.37;;;2.17;;
12792;SDS011;6460;42.684;23.260;2023-07-29T13:42:15;2.77;;;2.00;;
12792;SDS011;6460;42.684;23.260;2023-07-29T13:44:43;3.27;;;2.97;;
12792;SDS011;6460;42.684;23.260;2023-07-29T13:47:10;3.90;;;2.90;;
12792;SDS011;6460;42.684;23.260;2023-07-29T13:49:38;2.97;;;2.67;;
12792;SDS011;6460;42.684;23.260;2023-07-29T13:52:05;3.77;;;2.47;;
12792;SDS011;6460;42.684;23.260;2023-07-29T13:54:34;4.50;;;2.63;;
12792;SDS011;6460;42.684;23.260;2023-07-29T13:57:02;4.10;;;2.77;;
12792;SDS011;6460;42.684;23.260;2023-07-29T13:59:31;3.33;;;2.67;;
12792;SDS011;6460;42.684;23.260;2023-07-29T14:01:59;3.83;;;2.47;;
12792;SDS011;6460;42.684;23.260;2023-07-29T14:04:26;2.93;;;2.40;;
12792;SDS011;6460;42.684;23.260;2023-07-29T14:06:55;4.07;;;2.13;;
12792;SDS011;6460;42.684;23.260;2023-07-29T14:09:22;5.17;;;4.57;;
12792;SDS011;6460;42.684;23.260;2023-07-29T14:11:51;5.83;;;5.23;;
12792;SDS011;6460;42.684;23.260;2023-07-29T14:14:18;4.30;;;3.90;;
12792;SDS011;6460;42.684;23.260;2023-07-29T14:16:46;4.03;;;3.10;;
12792;SDS011;6460;42.684;23.260;2023-07-29T14:19:14;2.90;;;2.50;;
12792;SDS011;6460;42.684;23.260;2023-07-29T14:21:41;2.10;;;2.00;;
12792;SDS011;6460;42.684;23.260;2023-07-29T14:24:09;4.70;;;3.30;;
12792;SDS011;6460;42.684;23.260;2023-07-29T14:26:36;4.77;;;3.47;;
12792;SDS011;6460;42.684;23.260;2023-07-29T14:29:05;2.37;;;2.17;;
12792;SDS011;6460;42.684;23.260;2023-07-29T14:31:32;3.77;;;2.30;;
12792;SDS011;6460;42.684;23.260;2023-07-29T14:34:00;2.20;;;2.00;;
12792;SDS011;6460;42.684;23.260;2023-07-29T14:36:27;2.50;;;2.10;;
12792;SDS011;6460;42.684;23.260;2023-07-29T14:38:55;2.40;;;2.20;;
12792;SDS011;6460;42.684;23.260;2023-07-29T14:41:22;2.53;;;2.33;;
12792;SDS011;6460;42.684;23.260;2023-07-29T14:43:49;2.30;;;2.10;;
12792;SDS011;6460;42.684;23.260;2023-07-29T14:46:18;2.40;;;2.20;;
12792;SDS011;6460;42.684;23.260;2023-07-29T14:48:45;3.37;;;2.00;;
12792;SDS011;6460;42.684;23.260;2023-07-29T14:51:13;2.40;;;2.00;;
12792;SDS011;6460;42.684;23.260;2023-07-29T14:53:41;2.67;;;2.47;;
12792;SDS011;6460;42.684;23.260;2023-07-29T14:56:08;2.40;;;2.20;;
12792;SDS011;6460;42.684;23.260;2023-07-29T14:58:35;2.27;;;2.07;;
12792;SDS011;6460;42.684;23.260;2023-07-29T15:01:03;2.40;;;2.20;;
12792;SDS011;6460;42.684;23.260;2023-07-29T15:03:32;2.03;;;1.83;;
12792;SDS011;6460;42.684;23.260;2023-07-29T15:05:59;2.80;;;2.17;;
12792;SDS011;6460;42.684;23.260;2023-07-29T15:08:28;2.47;;;2.20;;
12792;SDS011;6460;42.684;23.260;2023-07-29T15:10:55;3.33;;;2.23;;
12792;SDS011;6460;42.684;23.260;2023-07-29T15:13:23;1.90;;;1.80;;
12792;SDS011;6460;42.684;23.260;2023-07-29T15:15:50;2.27;;;1.77;;
12792;SDS011;6460;42.684;23.260;2023-07-29T15:18:18;2.27;;;1.80;;
12792;SDS011;6460;42.684;23.260;2023-07-29T15:20:46;2.00;;;1.90;;
12792;SDS011;6460;42.684;23.260;2023-07-29T15:23:14;2.50;;;1.90;;
12792;SDS011;6460;42.684;23.260;2023-07-29T15:25:41;2.50;;;2.10;;
12792;SDS011;6460;42.684;23.260;2023-07-29T15:28:08;2.77;;;2.57;;
12792;SDS011;6460;42.684;23.260;2023-07-29T15:30:36;2.67;;;2.27;;
12792;SDS011;6460;42.684;23.260;2023-07-29T15:33:03;3.57;;;2.80;;
12792;SDS011;6460;42.684;23.260;2023-07-29T15:35:31;2.60;;;2.17;;
12792;SDS011;6460;42.684;23.260;2023-07-29T15:38:06;2.10;;;1.80;;
12792;SDS011;6460;42.684;23.260;2023-07-29T15:40:33;3.33;;;2.30;;
12792;SDS011;6460;42.684;23.260;2023-07-29T15:43:01;2.23;;;2.03;;
12792;SDS011;6460;42.684;23.260;2023-07-29T15:45:28;2.40;;;2.20;;
12792;SDS011;6460;42.684;23.260;2023-07-29T15:47:56;2.57;;;2.00;;
12792;SDS011;6460;42.684;23.260;2023-07-29T15:50:23;2.60;;;2.40;;
12792;SDS011;6460;42.684;23.260;2023-07-29T15:52:50;2.43;;;2.23;;
12792;SDS011;6460;42.684;23.260;2023-07-29T15:55:19;2.80;;;2.50;;
12792;SDS011;6460;42.684;23.260;2023-07-29T15:57:47;2.30;;;2.10;;
12792;SDS011;6460;42.684;23.260;2023-07-29T16:00:14;2.80;;;1.87;;
12792;SDS011;6460;42.684;23.260;2023-07-29T16:02:42;2.43;;;1.90;;
12792;SDS011;6460;42.684;23.260;2023-07-29T16:05:09;2.13;;;1.73;;
12792;SDS011;6460;42.684;23.260;2023-07-29T16:07:37;2.50;;;2.30;;
12792;SDS011;6460;42.684;23.260;2023-07-29T16:10:04;2.17;;;1.97;;
12792;SDS011;6460;42.684;23.260;2023-07-29T16:12:34;2.33;;;1.90;;
12792;SDS011;6460;42.684;23.260;2023-07-29T16:15:03;1.80;;;1.70;;
12792;SDS011;6460;42.684;23.260;2023-07-29T16:17:32;2.57;;;2.07;;
12792;SDS011;6460;42.684;23.260;2023-07-29T16:20:00;2.13;;;1.93;;
12792;SDS011;6460;42.684;23.260;2023-07-29T16:22:28;2.00;;;1.80;;
12792;SDS011;6460;42.684;23.260;2023-07-29T16:24:56;2.30;;;2.10;;
12792;SDS011;6460;42.684;23.260;2023-07-29T16:27:23;1.97;;;1.70;;
12792;SDS011;6460;42.684;23.260;2023-07-29T16:29:52;1.97;;;1.80;;
12792;SDS011;6460;42.684;23.260;2023-07-29T16:32:20;2.10;;;1.80;;
12792;SDS011;6460;42.684;23.260;2023-07-29T16:34:47;1.97;;;1.87;;
12792;SDS011;6460;42.684;23.260;2023-07-29T16:37:14;2.07;;;1.87;;
12792;SDS011;6460;42.684;23.260;2023-07-29T16:39:42;1.60;;;1.50;;
12792;SDS011;6460;42.684;23.260;2023-07-29T16:42:09;1.83;;;1.67;;
12792;SDS011;6460;42.684;23.260;2023-07-29T16:44:37;1.90;;;1.70;;
12792;SDS011;6460;42.684;23.260;2023-07-29T16:47:07;1.93;;;1.70;;
12792;SDS011;6460;42.684;23.260;2023-07-29T16:49:35;1.90;;;1.70;;
12792;SDS011;6460;42.684;23.260;2023-07-29T16:52:04;1.80;;;1.70;;
12792;SDS011;6460;42.684;23.260;2023-07-29T16:54:32;1.93;;;1.70;;
12792;SDS011;6460;42.684;23.260;2023-07-29T16:56:59;2.00;;;1.80;;
12792;SDS011;6460;42.684;23.260;2023-07-29T16:59:26;1.73;;;1.63;;
12792;SDS011;6460;42.684;23.260;2023-07-29T17:01:54;3.60;;;1.87;;
12792;SDS011;6460;42.684;23.260;2023-07-29T17:04:23;1.80;;;1.53;;
12792;SDS011;6460;42.684;23.260;2023-07-29T17:06:50;1.77;;;1.67;;
12792;SDS011;6460;42.684;23.260;2023-07-29T17:09:18;1.80;;;1.70;;
12792;SDS011;6460;42.684;23.260;2023-07-29T17:11:45;2.60;;;1.70;;
12792;SDS011;6460;42.684;23.260;2023-07-29T17:14:12;1.60;;;1.50;;
12792;SDS011;6460;42.684;23.260;2023-07-29T17:16:39;1.70;;;1.57;;
12792;SDS011;6460;42.684;23.260;2023-07-29T17:19:06;2.10;;;1.67;;
12792;SDS011;6460;42.684;23.260;2023-07-29T17:21:35;1.83;;;1.57;;
12792;SDS011;6460;42.684;23.260;2023-07-29T17:24:03;2.80;;;1.93;;
12792;SDS011;6460;42.684;23.260;2023-07-29T17:26:30;1.93;;;1.80;;
12792;SDS011;6460;42.684;23.260;2023-07-29T17:28:58;1.70;;;1.60;;
12792;SDS011;6460;42.684;23.260;2023-07-29T17:31:25;2.67;;;1.80;;
12792;SDS011;6460;42.684;23.260;2023-07-29T17:33:53;1.97;;;1.80;;
12792;SDS011;6460;42.684;23.260;2023-07-29T17:36:20;1.87;;;1.70;;
12792;SDS011;6460;42.684;23.260;2023-07-29T17:38:49;2.00;;;1.80;;
12792;SDS011;6460;42.684;23.260;2023-07-29T17:41:16;2.40;;;2.20;;
12792;SDS011;6460;42.684;23.260;2023-07-29T17:43:43;4.27;;;2.60;;
12792;SDS011;6460;42.684;23.260;2023-07-29T17:46:13;2.33;;;2.03;;
12792;SDS011;6460;42.684;23.260;2023-07-29T17:48:42;2.20;;;2.00;;
12792;SDS011;6460;42.684;23.260;2023-07-29T17:51:09;2.20;;;1.80;;
12792;SDS011;6460;42.684;23.260;2023-07-29T17:53:37;3.17;;;1.80;;
12792;SDS011;6460;42.684;23.260;2023-07-29T17:56:06;3.97;;;1.90;;
12792;SDS011;6460;42.684;23.260;2023-07-29T17:58:34;2.40;;;1.70;;
12792;SDS011;6460;42.684;23.260;2023-07-29T18:01:01;2.00;;;1.80;;
12792;SDS011;6460;42.684;23.260;2023-07-29T18:03:29;2.87;;;2.13;;
12792;SDS011;6460;42.684;23.260;2023-07-29T18:05:56;1.90;;;1.70;;
12792;SDS011;6460;42.684;23.260;2023-07-29T18:08:23;2.00;;;1.80;;
12792;SDS011;6460;42.684;23.260;2023-07-29T18:10:51;2.40;;;2.00;;
12792;SDS011;6460;42.684;23.260;2023-07-29T18:13:20;1.90;;;1.80;;
12792;SDS011;6460;42.684;23.260;2023-07-29T18:15:49;2.57;;;1.70;;
12792;SDS011;6460;42.684;23.260;2023-07-29T18:18:18;2.20;;;1.93;;
12792;SDS011;6460;42.684;23.260;2023-07-29T18:20:47;2.13;;;1.93;;
12792;SDS011;6460;42.684;23.260;2023-07-29T18:23:15;2.00;;;1.80;;
12792;SDS011;6460;42.684;23.260;2023-07-29T18:25:43;2.10;;;1.90;;
12792;SDS011;6460;42.684;23.260;2023-07-29T18:28:10;3.03;;;2.07;;
12792;SDS011;6460;42.684;23.260;2023-07-29T18:30:42;2.77;;;2.40;;
12792;SDS011;6460;42.684;23.260;2023-07-29T18:33:09;2.53;;;2.00;;
12792;SDS011;6460;42.684;23.260;2023-07-29T18:35:39;2.63;;;2.27;;
12792;SDS011;6460;42.684;23.260;2023-07-29T18:38:08;3.63;;;2.53;;
12792;SDS011;6460;42.684;23.260;2023-07-29T18:40:35;2.87;;;2.47;;
12792;SDS011;6460;42.684;23.260;2023-07-29T18:43:03;3.93;;;2.43;;
12792;SDS011;6460;42.684;23.260;2023-07-29T18:45:32;7.90;;;3.50;;
12792;SDS011;6460;42.684;23.260;2023-07-29T18:48:00;3.70;;;2.93;;
12792;SDS011;6460;42.684;23.260;2023-07-29T18:50:28;3.27;;;2.30;;
12792;SDS011;6460;42.684;23.260;2023-07-29T18:52:55;4.77;;;2.50;;
12792;SDS011;6460;42.684;23.260;2023-07-29T18:55:23;4.27;;;2.73;;
12792;SDS011;6460;42.684;23.260;2023-07-29T18:57:51;2.70;;;2.50;;
12792;SDS011;6460;42.684;23.260;2023-07-29T19:00:19;2.43;;;2.23;;
12792;SDS011;6460;42.684;23.260;2023-07-29T19:02:47;6.53;;;2.67;;
12792;SDS011;6460;42.684;23.260;2023-07-29T19:05:16;4.63;;;2.87;;
12792;SDS011;6460;42.684;23.260;2023-07-29T19:07:43;2.57;;;2.37;;
12792;SDS011;6460;42.684;23.260;2023-07-29T19:10:11;4.10;;;2.50;;
12792;SDS011;6460;42.684;23.260;2023-07-29T19:12:38;3.27;;;2.70;;
12792;SDS011;6460;42.684;23.260;2023-07-29T19:15:08;3.10;;;2.80;;
12792;SDS011;6460;42.684;23.260;2023-07-29T19:17:36;4.10;;;2.90;;
12792;SDS011;6460;42.684;23.260;2023-07-29T19:20:03;3.80;;;3.07;;
12792;SDS011;6460;42.684;23.260;2023-07-29T19:22:33;3.57;;;2.97;;
12792;SDS011;6460;42.684;23.260;2023-07-29T19:25:01;4.77;;;3.33;;
12792;SDS011;6460;42.684;23.260;2023-07-29T19:27:28;4.30;;;3.00;;
12792;SDS011;6460;42.684;23.260;2023-07-29T19:29:56;4.67;;;3.50;;
12792;SDS011;6460;42.684;23.260;2023-07-29T19:32:23;4.80;;;3.23;;
12792;SDS011;6460;42.684;23.260;2023-07-29T19:34:51;4.30;;;3.60;;
12792;SDS011;6460;42.684;23.260;2023-07-29T19:37:20;4.50;;;3.50;;
12792;SDS011;6460;42.684;23.260;2023-07-29T19:39:49;4.97;;;3.30;;
12792;SDS011;6460;42.684;23.260;2023-07-29T19:42:17;4.37;;;3.23;;
12792;SDS011;6460;42.684;23.260;2023-07-29T19:44:45;11.70;;;9.27;;
12792;SDS011;6460;42.684;23.260;2023-07-29T19:47:12;4.67;;;3.40;;
12792;SDS011;6460;42.684;23.260;2023-07-29T19:49:39;8.57;;;4.27;;
12792;SDS011;6460;42.684;23.260;2023-07-29T19:52:07;5.70;;;4.73;;
12792;SDS011;6460;42.684;23.260;2023-07-29T19:54:34;5.27;;;4.20;;
12792;SDS011;6460;42.684;23.260;2023-07-29T19:57:03;5.30;;;3.30;;
12792;SDS011;6460;42.684;23.260;2023-07-29T19:59:32;3.90;;;3.33;;
12792;SDS011;6460;42.684;23.260;2023-07-29T20:01:59;4.27;;;3.30;;
12792;SDS011;6460;42.684;23.260;2023-07-29T20:04:27;5.40;;;3.47;;
12792;SDS011;6460;42.684;23.260;2023-07-29T20:06:54;5.27;;;3.67;;
12792;SDS011;6460;42.684;23.260;2023-07-29T20:09:22;5.77;;;3.53;;
12792;SDS011;6460;42.684;23.260;2023-07-29T20:11:50;5.93;;;3.33;;
12792;SDS011;6460;42.684;23.260;2023-07-29T20:14:19;6.73;;;3.20;;
12792;SDS011;6460;42.684;23.260;2023-07-29T20:16:46;3.77;;;2.97;;
12792;SDS011;6460;42.684;23.260;2023-07-29T20:19:13;4.63;;;3.13;;
12792;SDS011;6460;42.684;23.260;2023-07-29T20:21:41;3.80;;;3.40;;
12792;SDS011;6460;42.684;23.260;2023-07-29T20:24:08;4.10;;;3.30;;
12792;SDS011;6460;42.684;23.260;2023-07-29T20:26:35;4.37;;;3.50;;
12792;SDS011;6460;42.684;23.260;2023-07-29T20:29:03;3.83;;;3.43;;
12792;SDS011;6460;42.684;23.260;2023-07-29T20:31:32;4.80;;;3.23;;
12792;SDS011;6460;42.684;23.260;2023-07-29T20:33:59;3.77;;;3.07;;
12792;SDS011;6460;42.684;23.260;2023-07-29T20:36:26;5.43;;;4.53;;
12792;SDS011;6460;42.684;23.260;2023-07-29T20:38:55;4.50;;;3.93;;
12792;SDS011;6460;42.684;23.260;2023-07-29T20:41:22;4.50;;;3.90;;
12792;SDS011;6460;42.684;23.260;2023-07-29T20:43:50;4.97;;;3.50;;
12792;SDS011;6460;42.684;23.260;2023-07-29T20:46:18;3.73;;;3.20;;
12792;SDS011;6460;42.684;23.260;2023-07-29T20:48:49;5.03;;;3.70;;
12792;SDS011;6460;42.684;23.260;2023-07-29T20:51:16;6.83;;;3.40;;
12792;SDS011;6460;42.684;23.260;2023-07-29T20:53:44;4.33;;;3.43;;
12792;SDS011;6460;42.684;23.260;2023-07-29T20:56:13;3.43;;;3.03;;
12792;SDS011;6460;42.684;23.260;2023-07-29T20:58:41;3.80;;;3.27;;
12792;SDS011;6460;42.684;23.260;2023-07-29T21:01:10;3.00;;;2.70;;
12792;SDS011;6460;42.684;23.260;2023-07-29T21:03:37;4.87;;;3.00;;
12792;SDS011;6460;42.684;23.260;2023-07-29T21:06:08;3.17;;;2.87;;
12792;SDS011;6460;42.684;23.260;2023-07-29T21:08:36;5.30;;;3.20;;
12792;SDS011;6460;42.684;23.260;2023-07-29T21:11:03;3.20;;;2.83;;
12792;SDS011;6460;42.684;23.260;2023-07-29T21:13:31;4.60;;;3.23;;
12792;SDS011;6460;42.684;23.260;2023-07-29T21:15:59;4.23;;;3.63;;
12792;SDS011;6460;42.684;23.260;2023-07-29T21:18:26;4.00;;;3.33;;
12792;SDS011;6460;42.684;23.260;2023-07-29T21:20:54;3.30;;;3.00;;
12792;SDS011;6460;42.684;23.260;2023-07-29T21:23:22;5.10;;;3.90;;
12792;SDS011;6460;42.684;23.260;2023-07-29T21:25:50;4.07;;;3.40;;
12792;SDS011;6460;42.684;23.260;2023-07-29T21:28:18;4.57;;;4.10;;
12792;SDS011;6460;42.684;23.260;2023-07-29T21:30:46;4.00;;;3.60;;
12792;SDS011;6460;42.684;23.260;2023-07-29T21:33:14;4.27;;;3.40;;
12792;SDS011;6460;42.684;23.260;2023-07-29T21:35:41;5.03;;;3.17;;
12792;SDS011;6460;42.684;23.260;2023-07-29T21:38:09;6.87;;;3.33;;
12792;SDS011;6460;42.684;23.260;2023-07-29T21:40:38;3.77;;;2.87;;
12792;SDS011;6460;42.684;23.260;2023-07-29T21:43:05;3.23;;;2.57;;
12792;SDS011;6460;42.684;23.260;2023-07-29T21:45:33;4.17;;;2.83;;
12792;SDS011;6460;42.684;23.260;2023-07-29T21:48:00;3.73;;;3.03;;
12792;SDS011;6460;42.684;23.260;2023-07-29T21:50:28;3.93;;;2.87;;